sensor_id;sensor_type;location;lat;lon;timestamp;temperature;humidity
37408;DHT22;24866;50.248;8.252;2022-07-06T00:02:02;15.70;99.90
37408;DHT22;24866;50.248;8.252;2022-07-06T00:04:33;15.70;99.90
37408;DHT22;24866;50.248;8.252;2022-07-06T00:07:03;15.70;99.90
37408;DHT22;24866;50.248;8.252;2022-07-06T00:09:34;15.70;99.90
37408;DHT22;24866;50.248;8.252;2022-07-06T00:12:04;15.60;99.90
37408;DHT22;24866;50.248;8.252;2022-07-06T00:14:34;15.70;99.90
37408;DHT22;24866;50.248;8.252;2022-07-06T00:17:04;15.60;99.90
37408;DHT22;24866;50.248;8.252;2022-07-06T00:19:34;15.70;99.90
37408;DHT22;24866;50.248;8.252;2022-07-06T00:22:04;15.60;99.90
37408;DHT22;24866;50.248;8.252;2022-07-06T00:24:35;15.70;99.90
37408;DHT22;24866;50.248;8.252;2022-07-06T00:27:05;15.90;99.90
37408;DHT22;24866;50.248;8.252;2022-07-06T00:29:35;15.90;99.90
37408;DHT22;24866;50.248;8.252;2022-07-06T00:32:06;15.90;99.90
37408;DHT22;24866;50.248;8.252;2022-07-06T00:34:36;16.00;99.90
37408;DHT22;24866;50.248;8.252;2022-07-06T00:37:07;15.90;99.90
37408;DHT22;24866;50.248;8.252;2022-07-06T00:39:39;15.90;99.90
37408;DHT22;24866;50.248;8.252;2022-07-06T00:42:09;15.70;99.90
37408;DHT22;24866;50.248;8.252;2022-07-06T00:44:39;15.70;99.90
37408;DHT22;24866;50.248;8.252;2022-07-06T00:47:09;15.60;99.90
37408;DHT22;24866;50.248;8.252;2022-07-06T00:49:38;15.60;99.90
37408;DHT22;24866;50.248;8.252;2022-07-06T00:52:26;15.40;99.90
37408;DHT22;24866;50.248;8.252;2022-07-06T00:54:57;15.40;99.90
37408;DHT22;24866;50.248;8.252;2022-07-06T00:57:31;15.30;99.90
37408;DHT22;24866;50.248;8.252;2022-07-06T01:00:02;15.30;99.90
37408;DHT22;24866;50.248;8.252;2022-07-06T01:02:32;15.20;99.90
37408;DHT22;24866;50.248;8.252;2022-07-06T01:05:05;15.20;99.90
37408;DHT22;24866;50.248;8.252;2022-07-06T01:07:35;15.10;99.90
37408;DHT22;24866;50.248;8.252;2022-07-06T01:10:08;15.00;99.90
37408;DHT22;24866;50.248;8.252;2022-07-06T01:12:40;15.00;99.90
37408;DHT22;24866;50.248;8.252;2022-07-06T01:15:12;15.00;99.90
37408;DHT22;24866;50.248;8.252;2022-07-06T01:17:43;14.80;99.90
37408;DHT22;24866;50.248;8.252;2022-07-06T01:20:15;14.80;99.90
37408;DHT22;24866;50.248;8.252;2022-07-06T01:22:46;14.90;99.90
37408;DHT22;24866;50.248;8.252;2022-07-06T01:25:17;14.70;99.90
37408;DHT22;24866;50.248;8.252;2022-07-06T01:27:47;14.90;99.90
37408;DHT22;24866;50.248;8.252;2022-07-06T01:30:20;14.80;99.90
37408;DHT22;24866;50.248;8.252;2022-07-06T01:32:51;14.90;99.90
37408;DHT22;24866;50.248;8.252;2022-07-06T01:35:23;14.90;99.90
37408;DHT22;24866;50.248;8.252;2022-07-06T01:37:54;15.10;99.90
37408;DHT22;24866;50.248;8.252;2022-07-06T01:40:23;15.00;99.90
37408;DHT22;24866;50.248;8.252;2022-07-06T01:42:53;15.10;99.90
37408;DHT22;24866;50.248;8.252;2022-07-06T01:45:23;15.20;99.90
37408;DHT22;24866;50.248;8.252;2022-07-06T01:47:54;15.10;99.90
37408;DHT22;24866;50.248;8.252;2022-07-06T01:50:25;15.20;99.90
37408;DHT22;24866;50.248;8.252;2022-07-06T01:52:55;15.20;99.90
37408;DHT22;24866;50.248;8.252;2022-07-06T01:55:25;15.10;99.90
37408;DHT22;24866;50.248;8.252;2022-07-06T01:57:55;15.00;99.90
37408;DHT22;24866;50.248;8.252;2022-07-06T02:00:25;15.10;99.90
37408;DHT22;24866;50.248;8.252;2022-07-06T02:02:55;14.90;99.90
37408;DHT22;24866;50.248;8.252;2022-07-06T02:05:26;14.80;99.90
37408;DHT22;24866;50.248;8.252;2022-07-06T02:07:56;14.90;99.90
37408;DHT22;24866;50.248;8.252;2022-07-06T02:10:26;14.80;99.90
37408;DHT22;24866;50.248;8.252;2022-07-06T02:12:56;14.80;99.90
37408;DHT22;24866;50.248;8.252;2022-07-06T02:15:26;14.90;99.90
37408;DHT22;24866;50.248;8.252;2022-07-06T02:17:56;14.80;99.90
37408;DHT22;24866;50.248;8.252;2022-07-06T02:20:27;14.80;99.90
37408;DHT22;24866;50.248;8.252;2022-07-06T02:22:57;14.40;99.90
37408;DHT22;24866;50.248;8.252;2022-07-06T02:25:27;14.40;99.90
37408;DHT22;24866;50.248;8.252;2022-07-06T02:27:56;14.30;99.90
37408;DHT22;24866;50.248;8.252;2022-07-06T02:30:26;14.40;99.90
37408;DHT22;24866;50.248;8.252;2022-07-06T02:32:56;14.50;99.90
37408;DHT22;24866;50.248;8.252;2022-07-06T02:35:28;14.40;99.90
37408;DHT22;24866;50.248;8.252;2022-07-06T02:37:57;14.40;99.90
37408;DHT22;24866;50.248;8.252;2022-07-06T02:40:27;14.30;99.90
37408;DHT22;24866;50.248;8.252;2022-07-06T02:42:57;14.30;99.90
37408;DHT22;24866;50.248;8.252;2022-07-06T02:45:27;14.30;99.90
37408;DHT22;24866;50.248;8.252;2022-07-06T02:47:57;14.30;99.90
37408;DHT22;24866;50.248;8.252;2022-07-06T02:50:29;14.30;99.90
37408;DHT22;24866;50.248;8.252;2022-07-06T02:52:59;14.30;99.90
37408;DHT22;24866;50.248;8.252;2022-07-06T02:55:30;14.30;99.90
37408;DHT22;24866;50.248;8.252;2022-07-06T02:58:00;14.30;99.90
37408;DHT22;24866;50.248;8.252;2022-07-06T03:00:30;14.40;99.90
37408;DHT22;24866;50.248;8.252;2022-07-06T03:03:00;14.40;99.90
37408;DHT22;24866;50.248;8.252;2022-07-06T03:05:31;14.10;99.90
37408;DHT22;24866;50.248;8.252;2022-07-06T03:08:01;14.20;99.90
37408;DHT22;24866;50.248;8.252;2022-07-06T03:10:31;14.10;99.90
37408;DHT22;24866;50.248;8.252;2022-07-06T03:13:01;14.00;99.90
37408;DHT22;24866;50.248;8.252;2022-07-06T03:15:31;14.00;99.90
37408;DHT22;24866;50.248;8.252;2022-07-06T03:18:00;13.90;99.90
37408;DHT22;24866;50.248;8.252;2022-07-06T03:20:32;14.00;99.90
37408;DHT22;24866;50.248;8.252;2022-07-06T03:23:02;13.80;99.90
37408;DHT22;24866;50.248;8.252;2022-07-06T03:25:34;13.60;99.90
37408;DHT22;24866;50.248;8.252;2022-07-06T03:28:04;13.70;99.90
37408;DHT22;24866;50.248;8.252;2022-07-06T03:30:34;13.60;99.90
37408;DHT22;24866;50.248;8.252;2022-07-06T03:33:04;13.50;99.90
37408;DHT22;24866;50.248;8.252;2022-07-06T03:35:36;13.60;99.90
37408;DHT22;24866;50.248;8.252;2022-07-06T03:38:06;13.60;99.90
37408;DHT22;24866;50.248;8.252;2022-07-06T03:40:36;13.60;99.90
37408;DHT22;24866;50.248;8.252;2022-07-06T03:43:06;13.40;99.90
37408;DHT22;24866;50.248;8.252;2022-07-06T03:45:36;13.30;99.90
37408;DHT22;24866;50.248;8.252;2022-07-06T03:48:06;13.20;99.90
37408;DHT22;24866;50.248;8.252;2022-07-06T03:50:37;13.00;99.90
37408;DHT22;24866;50.248;8.252;2022-07-06T03:53:07;13.00;99.90
37408;DHT22;24866;50.248;8.252;2022-07-06T03:55:37;12.80;99.90
37408;DHT22;24866;50.248;8.252;2022-07-06T03:58:07;12.80;99.90
37408;DHT22;24866;50.248;8.252;2022-07-06T04:00:37;12.90;99.90
37408;DHT22;24866;50.248;8.252;2022-07-06T04:03:07;12.90;99.90
37408;DHT22;24866;50.248;8.252;2022-07-06T04:05:38;12.90;99.90
37408;DHT22;24866;50.248;8.252;2022-07-06T04:08:08;12.90;99.90
37408;DHT22;24866;50.248;8.252;2022-07-06T04:10:38;12.90;99.90
37408;DHT22;24866;50.248;8.252;2022-07-06T04:13:08;12.90;99.90
37408;DHT22;24866;50.248;8.252;2022-07-06T04:15:38;12.90;99.90
37408;DHT22;24866;50.248;8.252;2022-07-06T04:18:08;13.00;99.90
37408;DHT22;24866;50.248;8.252;2022-07-06T04:20:39;13.10;99.90
37408;DHT22;24866;50.248;8.252;2022-07-06T04:23:09;13.10;99.90
37408;DHT22;24866;50.248;8.252;2022-07-06T04:25:39;13.10;99.90
37408;DHT22;24866;50.248;8.252;2022-07-06T04:28:09;13.20;99.90
37408;DHT22;24866;50.248;8.252;2022-07-06T04:30:39;13.20;99.90
37408;DHT22;24866;50.248;8.252;2022-07-06T04:33:09;13.10;99.90
37408;DHT22;24866;50.248;8.252;2022-07-06T04:35:40;13.10;99.90
37408;DHT22;24866;50.248;8.252;2022-07-06T04:38:10;13.30;99.90
37408;DHT22;24866;50.248;8.252;2022-07-06T04:40:40;13.30;99.90
37408;DHT22;24866;50.248;8.252;2022-07-06T04:43:10;13.30;99.90
37408;DHT22;24866;50.248;8.252;2022-07-06T04:45:40;13.30;99.90
37408;DHT22;24866;50.248;8.252;2022-07-06T04:48:09;13.30;99.90
37408;DHT22;24866;50.248;8.252;2022-07-06T04:50:41;13.50;99.90
37408;DHT22;24866;50.248;8.252;2022-07-06T04:53:11;13.40;99.90
37408;DHT22;24866;50.248;8.252;2022-07-06T04:55:41;13.50;99.90
37408;DHT22;24866;50.248;8.252;2022-07-06T04:58:11;13.60;99.90
37408;DHT22;24866;50.248;8.252;2022-07-06T05:00:41;13.40;99.90
37408;DHT22;24866;50.248;8.252;2022-07-06T05:03:10;13.50;99.90
37408;DHT22;24866;50.248;8.252;2022-07-06T05:05:42;13.60;99.90
37408;DHT22;24866;50.248;8.252;2022-07-06T05:08:12;13.70;99.90
37408;DHT22;24866;50.248;8.252;2022-07-06T05:10:41;13.80;99.90
37408;DHT22;24866;50.248;8.252;2022-07-06T05:13:11;13.60;99.90
37408;DHT22;24866;50.248;8.252;2022-07-06T05:15:41;13.60;99.90
37408;DHT22;24866;50.248;8.252;2022-07-06T05:18:11;13.80;99.90
37408;DHT22;24866;50.248;8.252;2022-07-06T05:20:43;13.70;99.90
37408;DHT22;24866;50.248;8.252;2022-07-06T05:23:13;13.70;99.90
37408;DHT22;24866;50.248;8.252;2022-07-06T05:25:43;13.70;99.90
37408;DHT22;24866;50.248;8.252;2022-07-06T05:28:13;13.80;99.90
37408;DHT22;24866;50.248;8.252;2022-07-06T05:30:43;13.90;99.90
37408;DHT22;24866;50.248;8.252;2022-07-06T05:33:13;14.00;99.90
37408;DHT22;24866;50.248;8.252;2022-07-06T05:35:44;14.00;99.90
37408;DHT22;24866;50.248;8.252;2022-07-06T05:38:14;14.20;99.90
37408;DHT22;24866;50.248;8.252;2022-07-06T05:40:44;14.10;99.90
37408;DHT22;24866;50.248;8.252;2022-07-06T05:43:14;14.10;99.90
37408;DHT22;24866;50.248;8.252;2022-07-06T05:45:44;14.40;99.90
37408;DHT22;24866;50.248;8.252;2022-07-06T05:48:14;14.20;99.90
37408;DHT22;24866;50.248;8.252;2022-07-06T05:51:03;14.20;99.90
37408;DHT22;24866;50.248;8.252;2022-07-06T05:53:33;14.20;99.90
37408;DHT22;24866;50.248;8.252;2022-07-06T05:56:03;14.50;99.90
37408;DHT22;24866;50.248;8.252;2022-07-06T05:58:34;14.30;99.90
37408;DHT22;24866;50.248;8.252;2022-07-06T06:01:04;14.40;99.90
37408;DHT22;24866;50.248;8.252;2022-07-06T06:03:35;14.50;99.90
37408;DHT22;24866;50.248;8.252;2022-07-06T06:06:07;14.50;99.90
37408;DHT22;24866;50.248;8.252;2022-07-06T06:08:37;14.60;99.90
37408;DHT22;24866;50.248;8.252;2022-07-06T06:11:07;14.60;99.90
37408;DHT22;24866;50.248;8.252;2022-07-06T06:13:37;14.60;99.90
37408;DHT22;24866;50.248;8.252;2022-07-06T06:16:07;14.50;99.90
37408;DHT22;24866;50.248;8.252;2022-07-06T06:18:37;14.50;99.90
37408;DHT22;24866;50.248;8.252;2022-07-06T06:21:08;14.50;99.90
37408;DHT22;24866;50.248;8.252;2022-07-06T06:23:38;14.40;99.90
37408;DHT22;24866;50.248;8.252;2022-07-06T06:26:08;14.50;99.90
37408;DHT22;24866;50.248;8.252;2022-07-06T06:28:38;14.50;99.90
37408;DHT22;24866;50.248;8.252;2022-07-06T06:31:10;14.40;99.90
37408;DHT22;24866;50.248;8.252;2022-07-06T06:33:40;14.70;99.90
37408;DHT22;24866;50.248;8.252;2022-07-06T06:36:11;14.80;99.90
37408;DHT22;24866;50.248;8.252;2022-07-06T06:38:41;14.50;99.90
37408;DHT22;24866;50.248;8.252;2022-07-06T06:41:11;14.60;99.90
37408;DHT22;24866;50.248;8.252;2022-07-06T06:43:41;14.60;99.90
37408;DHT22;24866;50.248;8.252;2022-07-06T06:46:11;14.70;99.90
37408;DHT22;24866;50.248;8.252;2022-07-06T06:48:41;14.90;99.90
37408;DHT22;24866;50.248;8.252;2022-07-06T06:51:13;14.90;99.90
37408;DHT22;24866;50.248;8.252;2022-07-06T06:53:42;15.00;99.90
37408;DHT22;24866;50.248;8.252;2022-07-06T06:56:13;15.00;99.90
37408;DHT22;24866;50.248;8.252;2022-07-06T06:58:43;15.10;99.90
37408;DHT22;24866;50.248;8.252;2022-07-06T07:01:13;15.20;99.90
37408;DHT22;24866;50.248;8.252;2022-07-06T07:03:43;15.10;99.90
37408;DHT22;24866;50.248;8.252;2022-07-06T07:06:14;15.10;99.90
37408;DHT22;24866;50.248;8.252;2022-07-06T07:08:44;15.20;99.90
37408;DHT22;24866;50.248;8.252;2022-07-06T07:11:14;15.20;99.90
37408;DHT22;24866;50.248;8.252;2022-07-06T07:13:44;15.50;99.90
37408;DHT22;24866;50.248;8.252;2022-07-06T07:16:14;15.60;99.90
37408;DHT22;24866;50.248;8.252;2022-07-06T07:18:44;15.50;99.90
37408;DHT22;24866;50.248;8.252;2022-07-06T07:21:15;15.80;99.90
37408;DHT22;24866;50.248;8.252;2022-07-06T07:23:46;15.70;99.90
37408;DHT22;24866;50.248;8.252;2022-07-06T07:26:17;15.90;99.90
37408;DHT22;24866;50.248;8.252;2022-07-06T07:28:47;16.00;99.90
37408;DHT22;24866;50.248;8.252;2022-07-06T07:31:17;15.70;99.90
37408;DHT22;24866;50.248;8.252;2022-07-06T07:33:47;15.90;99.90
37408;DHT22;24866;50.248;8.252;2022-07-06T07:36:19;16.00;99.90
37408;DHT22;24866;50.248;8.252;2022-07-06T07:38:49;15.50;99.90
37408;DHT22;24866;50.248;8.252;2022-07-06T07:41:19;15.30;99.90
37408;DHT22;24866;50.248;8.252;2022-07-06T07:43:49;15.50;99.90
37408;DHT22;24866;50.248;8.252;2022-07-06T07:46:19;15.60;99.90
37408;DHT22;24866;50.248;8.252;2022-07-06T07:48:49;15.60;99.90
37408;DHT22;24866;50.248;8.252;2022-07-06T07:51:21;15.70;99.90
37408;DHT22;24866;50.248;8.252;2022-07-06T07:53:51;16.20;99.90
37408;DHT22;24866;50.248;8.252;2022-07-06T07:56:21;16.30;99.90
37408;DHT22;24866;50.248;8.252;2022-07-06T07:58:51;16.30;99.90
37408;DHT22;24866;50.248;8.252;2022-07-06T08:01:21;15.80;99.90
37408;DHT22;24866;50.248;8.252;2022-07-06T08:03:51;15.60;99.90
37408;DHT22;24866;50.248;8.252;2022-07-06T08:06:22;15.60;99.90
37408;DHT22;24866;50.248;8.252;2022-07-06T08:08:52;15.60;99.90
37408;DHT22;24866;50.248;8.252;2022-07-06T08:11:22;15.90;99.90
37408;DHT22;24866;50.248;8.252;2022-07-06T08:13:52;16.10;99.90
37408;DHT22;24866;50.248;8.252;2022-07-06T08:16:22;16.00;99.90
37408;DHT22;24866;50.248;8.252;2022-07-06T08:18:52;16.10;99.90
37408;DHT22;24866;50.248;8.252;2022-07-06T08:21:24;16.20;99.90
37408;DHT22;24866;50.248;8.252;2022-07-06T08:23:54;16.30;99.90
37408;DHT22;24866;50.248;8.252;2022-07-06T08:26:24;16.40;99.90
37408;DHT22;24866;50.248;8.252;2022-07-06T08:28:55;16.70;99.90
37408;DHT22;24866;50.248;8.252;2022-07-06T08:31:25;16.70;99.90
37408;DHT22;24866;50.248;8.252;2022-07-06T08:33:56;16.70;99.90
37408;DHT22;24866;50.248;8.252;2022-07-06T08:36:27;16.90;99.90
37408;DHT22;24866;50.248;8.252;2022-07-06T08:38:58;17.10;99.90
37408;DHT22;24866;50.248;8.252;2022-07-06T08:41:29;17.00;99.90
37408;DHT22;24866;50.248;8.252;2022-07-06T08:44:00;16.90;99.90
37408;DHT22;24866;50.248;8.252;2022-07-06T08:46:31;16.30;99.90
37408;DHT22;24866;50.248;8.252;2022-07-06T08:49:02;16.80;99.90
37408;DHT22;24866;50.248;8.252;2022-07-06T08:51:35;16.80;99.90
37408;DHT22;24866;50.248;8.252;2022-07-06T08:54:05;16.80;99.90
37408;DHT22;24866;50.248;8.252;2022-07-06T08:56:38;17.10;99.90
37408;DHT22;24866;50.248;8.252;2022-07-06T08:59:08;17.50;99.90
37408;DHT22;24866;50.248;8.252;2022-07-06T09:01:39;17.30;99.90
37408;DHT22;24866;50.248;8.252;2022-07-06T09:04:12;17.40;99.90
37408;DHT22;24866;50.248;8.252;2022-07-06T09:06:46;17.60;99.90
37408;DHT22;24866;50.248;8.252;2022-07-06T09:09:20;17.50;99.90
37408;DHT22;24866;50.248;8.252;2022-07-06T09:11:51;17.50;99.90
37408;DHT22;24866;50.248;8.252;2022-07-06T09:14:22;17.50;99.90
37408;DHT22;24866;50.248;8.252;2022-07-06T09:17:03;17.70;99.90
37408;DHT22;24866;50.248;8.252;2022-07-06T09:19:35;17.90;99.90
37408;DHT22;24866;50.248;8.252;2022-07-06T09:22:06;17.60;99.90
37408;DHT22;24866;50.248;8.252;2022-07-06T09:24:42;17.40;99.90
37408;DHT22;24866;50.248;8.252;2022-07-06T09:27:16;17.60;99.90
37408;DHT22;24866;50.248;8.252;2022-07-06T09:29:47;17.40;99.90
37408;DHT22;24866;50.248;8.252;2022-07-06T09:32:20;17.60;99.90
37408;DHT22;24866;50.248;8.252;2022-07-06T09:34:50;17.50;99.90
37408;DHT22;24866;50.248;8.252;2022-07-06T09:37:22;17.80;99.90
37408;DHT22;24866;50.248;8.252;2022-07-06T09:39:53;17.80;99.90
37408;DHT22;24866;50.248;8.252;2022-07-06T09:42:24;18.20;99.90
37408;DHT22;24866;50.248;8.252;2022-07-06T09:44:55;18.20;87.40
37408;DHT22;24866;50.248;8.252;2022-07-06T09:47:26;18.20;91.20
37408;DHT22;24866;50.248;8.252;2022-07-06T09:49:56;18.10;92.60
37408;DHT22;24866;50.248;8.252;2022-07-06T09:52:33;18.10;80.40
37408;DHT22;24866;50.248;8.252;2022-07-06T09:55:13;18.10;59.50
37408;DHT22;24866;50.248;8.252;2022-07-06T09:57:52;18.20;81.50
37408;DHT22;24866;50.248;8.252;2022-07-06T10:00:23;18.20;24.00
37408;DHT22;24866;50.248;8.252;2022-07-06T10:02:54;18.00;30.30
37408;DHT22;24866;50.248;8.252;2022-07-06T10:05:25;18.10;6.70
37408;DHT22;24866;50.248;8.252;2022-07-06T10:08:00;19.00;27.60
37408;DHT22;24866;50.248;8.252;2022-07-06T10:10:30;18.60;1.10
37408;DHT22;24866;50.248;8.252;2022-07-06T10:13:00;18.60;1.00
37408;DHT22;24866;50.248;8.252;2022-07-06T10:15:32;18.90;1.00
37408;DHT22;24866;50.248;8.252;2022-07-06T10:18:04;18.60;7.70
37408;DHT22;24866;50.248;8.252;2022-07-06T10:20:37;18.80;1.00
37408;DHT22;24866;50.248;8.252;2022-07-06T10:23:08;18.90;1.00
37408;DHT22;24866;50.248;8.252;2022-07-06T10:25:39;18.70;1.00
37408;DHT22;24866;50.248;8.252;2022-07-06T10:28:09;18.20;1.00
37408;DHT22;24866;50.248;8.252;2022-07-06T10:30:44;18.40;1.00
37408;DHT22;24866;50.248;8.252;2022-07-06T10:33:14;18.80;1.00
37408;DHT22;24866;50.248;8.252;2022-07-06T10:35:45;18.90;1.00
37408;DHT22;24866;50.248;8.252;2022-07-06T10:38:16;19.10;8.50
37408;DHT22;24866;50.248;8.252;2022-07-06T10:40:47;19.40;6.00
37408;DHT22;24866;50.248;8.252;2022-07-06T10:43:35;18.70;2.90
37408;DHT22;24866;50.248;8.252;2022-07-06T10:46:07;19.20;2.40
37408;DHT22;24866;50.248;8.252;2022-07-06T10:48:38;19.60;1.00
37408;DHT22;24866;50.248;8.252;2022-07-06T10:51:10;19.40;1.00
37408;DHT22;24866;50.248;8.252;2022-07-06T10:53:42;19.20;1.00
37408;DHT22;24866;50.248;8.252;2022-07-06T10:56:13;19.10;1.00
37408;DHT22;24866;50.248;8.252;2022-07-06T10:58:52;19.00;1.00
37408;DHT22;24866;50.248;8.252;2022-07-06T11:01:23;19.20;1.00
37408;DHT22;24866;50.248;8.252;2022-07-06T11:04:07;19.70;1.00
37408;DHT22;24866;50.248;8.252;2022-07-06T11:06:39;20.00;1.00
37408;DHT22;24866;50.248;8.252;2022-07-06T11:09:12;19.30;1.00
37408;DHT22;24866;50.248;8.252;2022-07-06T11:11:44;19.30;1.00
37408;DHT22;24866;50.248;8.252;2022-07-06T11:14:18;19.40;1.00
37408;DHT22;24866;50.248;8.252;2022-07-06T11:17:01;19.90;1.00
37408;DHT22;24866;50.248;8.252;2022-07-06T11:19:32;19.80;1.00
37408;DHT22;24866;50.248;8.252;2022-07-06T11:22:07;19.80;1.00
37408;DHT22;24866;50.248;8.252;2022-07-06T11:24:41;19.50;1.00
37408;DHT22;24866;50.248;8.252;2022-07-06T11:27:12;20.00;1.00
37408;DHT22;24866;50.248;8.252;2022-07-06T11:29:42;20.00;1.00
37408;DHT22;24866;50.248;8.252;2022-07-06T11:32:13;19.80;1.00
37408;DHT22;24866;50.248;8.252;2022-07-06T11:34:44;20.30;1.00
37408;DHT22;24866;50.248;8.252;2022-07-06T11:37:14;20.50;1.00
37408;DHT22;24866;50.248;8.252;2022-07-06T11:39:47;20.30;1.00
37408;DHT22;24866;50.248;8.252;2022-07-06T11:42:18;20.00;1.00
37408;DHT22;24866;50.248;8.252;2022-07-06T11:44:48;19.80;1.00
37408;DHT22;24866;50.248;8.252;2022-07-06T11:47:18;19.60;1.00
37408;DHT22;24866;50.248;8.252;2022-07-06T11:49:51;20.20;1.00
37408;DHT22;24866;50.248;8.252;2022-07-06T11:52:21;20.00;1.00
37408;DHT22;24866;50.248;8.252;2022-07-06T11:54:58;20.70;1.00
37408;DHT22;24866;50.248;8.252;2022-07-06T11:57:32;20.40;1.00
37408;DHT22;24866;50.248;8.252;2022-07-06T12:00:03;20.50;1.00
37408;DHT22;24866;50.248;8.252;2022-07-06T12:02:33;20.70;1.00
37408;DHT22;24866;50.248;8.252;2022-07-06T12:05:04;20.20;1.00
37408;DHT22;24866;50.248;8.252;2022-07-06T12:07:35;19.70;1.00
37408;DHT22;24866;50.248;8.252;2022-07-06T12:10:08;19.70;1.00
37408;DHT22;24866;50.248;8.252;2022-07-06T12:12:38;19.90;1.00
37408;DHT22;24866;50.248;8.252;2022-07-06T12:15:08;20.10;1.00
37408;DHT22;24866;50.248;8.252;2022-07-06T12:17:38;20.40;1.00
37408;DHT22;24866;50.248;8.252;2022-07-06T12:20:11;20.80;1.00
37408;DHT22;24866;50.248;8.252;2022-07-06T12:22:41;20.70;1.00
37408;DHT22;24866;50.248;8.252;2022-07-06T12:25:29;20.90;1.00
37408;DHT22;24866;50.248;8.252;2022-07-06T12:27:59;20.80;1.00
37408;DHT22;24866;50.248;8.252;2022-07-06T12:30:29;20.30;1.00
37408;DHT22;24866;50.248;8.252;2022-07-06T12:33:13;20.30;1.00
37408;DHT22;24866;50.248;8.252;2022-07-06T12:35:44;19.70;1.00
37408;DHT22;24866;50.248;8.252;2022-07-06T12:38:22;20.40;1.00
37408;DHT22;24866;50.248;8.252;2022-07-06T12:40:53;20.80;1.00
37408;DHT22;24866;50.248;8.252;2022-07-06T12:43:40;21.20;1.00
37408;DHT22;24866;50.248;8.252;2022-07-06T12:46:29;20.70;1.00
37408;DHT22;24866;50.248;8.252;2022-07-06T12:49:02;20.60;1.00
37408;DHT22;24866;50.248;8.252;2022-07-06T12:54:17;20.10;1.00
37408;DHT22;24866;50.248;8.252;2022-07-06T12:59:56;20.00;1.00
37408;DHT22;24866;50.248;8.252;2022-07-06T13:02:31;20.00;1.00
37408;DHT22;24866;50.248;8.252;2022-07-06T13:05:03;19.40;1.00
37408;DHT22;24866;50.248;8.252;2022-07-06T13:07:35;19.60;1.00
37408;DHT22;24866;50.248;8.252;2022-07-06T13:10:07;19.70;1.00
37408;DHT22;24866;50.248;8.252;2022-07-06T13:12:39;19.60;1.00
37408;DHT22;24866;50.248;8.252;2022-07-06T13:15:10;19.50;1.00
37408;DHT22;24866;50.248;8.252;2022-07-06T13:17:43;19.60;1.00
37408;DHT22;24866;50.248;8.252;2022-07-06T13:20:14;19.50;1.00
37408;DHT22;24866;50.248;8.252;2022-07-06T13:22:46;19.50;1.00
37408;DHT22;24866;50.248;8.252;2022-07-06T13:25:16;19.50;1.00
37408;DHT22;24866;50.248;8.252;2022-07-06T13:27:48;19.40;1.00
37408;DHT22;24866;50.248;8.252;2022-07-06T13:30:18;19.70;1.00
37408;DHT22;24866;50.248;8.252;2022-07-06T13:32:48;19.70;1.00
37408;DHT22;24866;50.248;8.252;2022-07-06T13:35:18;19.60;1.00
37408;DHT22;24866;50.248;8.252;2022-07-06T13:37:49;20.00;1.00
37408;DHT22;24866;50.248;8.252;2022-07-06T13:40:19;20.10;1.00
37408;DHT22;24866;50.248;8.252;2022-07-06T13:42:51;20.80;1.00
37408;DHT22;24866;50.248;8.252;2022-07-06T13:45:23;20.30;1.00
37408;DHT22;24866;50.248;8.252;2022-07-06T13:47:53;20.10;1.00
37408;DHT22;24866;50.248;8.252;2022-07-06T13:50:23;20.00;1.00
37408;DHT22;24866;50.248;8.252;2022-07-06T13:52:54;19.90;1.00
37408;DHT22;24866;50.248;8.252;2022-07-06T13:55:24;19.90;1.00
37408;DHT22;24866;50.248;8.252;2022-07-06T13:57:56;19.80;1.00
37408;DHT22;24866;50.248;8.252;2022-07-06T14:00:26;20.00;1.00
37408;DHT22;24866;50.248;8.252;2022-07-06T14:02:57;20.40;1.00
37408;DHT22;24866;50.248;8.252;2022-07-06T14:05:28;20.30;1.00
37408;DHT22;24866;50.248;8.252;2022-07-06T14:08:00;20.40;1.00
37408;DHT22;24866;50.248;8.252;2022-07-06T14:10:31;20.40;1.00
37408;DHT22;24866;50.248;8.252;2022-07-06T14:13:05;20.10;1.00
37408;DHT22;24866;50.248;8.252;2022-07-06T14:15:35;19.70;1.00
37408;DHT22;24866;50.248;8.252;2022-07-06T14:18:05;19.70;1.00
37408;DHT22;24866;50.248;8.252;2022-07-06T14:20:36;20.10;1.00
37408;DHT22;24866;50.248;8.252;2022-07-06T14:23:07;19.60;1.00
37408;DHT22;24866;50.248;8.252;2022-07-06T14:25:37;19.60;1.00
37408;DHT22;24866;50.248;8.252;2022-07-06T14:28:09;19.20;1.00
37408;DHT22;24866;50.248;8.252;2022-07-06T14:30:43;19.40;1.00
37408;DHT22;24866;50.248;8.252;2022-07-06T14:33:14;19.20;1.00
37408;DHT22;24866;50.248;8.252;2022-07-06T14:35:47;19.00;1.00
37408;DHT22;24866;50.248;8.252;2022-07-06T14:38:20;19.10;1.00
37408;DHT22;24866;50.248;8.252;2022-07-06T14:40:52;19.30;1.00
37408;DHT22;24866;50.248;8.252;2022-07-06T14:43:26;19.40;1.00
37408;DHT22;24866;50.248;8.252;2022-07-06T14:45:57;19.40;1.00
37408;DHT22;24866;50.248;8.252;2022-07-06T14:48:27;19.30;1.00
37408;DHT22;24866;50.248;8.252;2022-07-06T14:50:58;19.40;1.00
37408;DHT22;24866;50.248;8.252;2022-07-06T14:53:30;19.40;1.00
37408;DHT22;24866;50.248;8.252;2022-07-06T14:56:01;19.50;1.00
37408;DHT22;24866;50.248;8.252;2022-07-06T14:58:33;19.40;1.00
37408;DHT22;24866;50.248;8.252;2022-07-06T15:01:04;19.20;1.00
37408;DHT22;24866;50.248;8.252;2022-07-06T15:03:35;19.20;1.00
37408;DHT22;24866;50.248;8.252;2022-07-06T15:06:06;19.30;1.00
37408;DHT22;24866;50.248;8.252;2022-07-06T15:08:37;19.20;1.00
37408;DHT22;24866;50.248;8.252;2022-07-06T15:11:07;19.20;1.00
37408;DHT22;24866;50.248;8.252;2022-07-06T15:13:39;19.10;1.00
37408;DHT22;24866;50.248;8.252;2022-07-06T15:16:09;19.00;1.00
37408;DHT22;24866;50.248;8.252;2022-07-06T15:18:38;19.10;1.00
37408;DHT22;24866;50.248;8.252;2022-07-06T15:21:09;19.10;1.00
37408;DHT22;24866;50.248;8.252;2022-07-06T15:23:39;19.30;1.00
37408;DHT22;24866;50.248;8.252;2022-07-06T15:26:10;19.20;1.00
37408;DHT22;24866;50.248;8.252;2022-07-06T15:28:42;19.20;1.00
37408;DHT22;24866;50.248;8.252;2022-07-06T15:31:12;19.10;1.00
37408;DHT22;24866;50.248;8.252;2022-07-06T15:33:41;19.10;1.00
37408;DHT22;24866;50.248;8.252;2022-07-06T15:36:13;19.30;1.00
37408;DHT22;24866;50.248;8.252;2022-07-06T15:38:43;19.60;1.00
37408;DHT22;24866;50.248;8.252;2022-07-06T15:41:13;20.00;1.00
37408;DHT22;24866;50.248;8.252;2022-07-06T15:43:44;20.20;1.00
37408;DHT22;24866;50.248;8.252;2022-07-06T15:46:14;19.90;1.00
37408;DHT22;24866;50.248;8.252;2022-07-06T15:48:44;19.60;1.00
37408;DHT22;24866;50.248;8.252;2022-07-06T15:51:14;19.50;1.00
37408;DHT22;24866;50.248;8.252;2022-07-06T15:53:44;19.50;1.00
37408;DHT22;24866;50.248;8.252;2022-07-06T15:56:16;19.40;1.00
37408;DHT22;24866;50.248;8.252;2022-07-06T15:58:47;19.50;1.00
37408;DHT22;24866;50.248;8.252;2022-07-06T16:01:17;19.30;1.00
37408;DHT22;24866;50.248;8.252;2022-07-06T16:03:47;19.60;1.00
37408;DHT22;24866;50.248;8.252;2022-07-06T16:06:17;19.50;1.00
37408;DHT22;24866;50.248;8.252;2022-07-06T16:08:47;19.80;1.00